createdAt,value
2023-11-26T00:00:24.838Z,2.60
2023-11-26T00:00:59.625Z,2.33
2023-11-26T00:01:32.783Z,3.17
2023-11-26T00:02:06.164Z,2.77
2023-11-26T00:02:39.601Z,2.40
2023-11-26T00:03:12.780Z,2.57
2023-11-26T00:03:45.426Z,3.23
2023-11-26T00:04:17.991Z,2.80
2023-11-26T00:04:50.528Z,2.37
2023-11-26T00:05:23.302Z,2.87
2023-11-26T00:05:56.271Z,2.90
2023-11-26T00:06:28.899Z,3.10
2023-11-26T00:07:01.451Z,2.40
2023-11-26T00:07:34.175Z,2.37
2023-11-26T00:08:06.786Z,2.93
2023-11-26T00:08:39.660Z,2.87
2023-11-26T00:09:12.516Z,2.33
2023-11-26T00:09:45.101Z,2.60
2023-11-26T00:10:17.680Z,2.93
2023-11-26T00:10:50.237Z,3.27
2023-11-26T00:11:22.886Z,3.43
2023-11-26T00:11:56.138Z,2.93
2023-11-26T00:12:28.707Z,2.77
2023-11-26T00:13:01.279Z,2.93
2023-11-26T00:13:33.814Z,3.27
2023-11-26T00:14:06.655Z,2.90
2023-11-26T00:14:40.129Z,2.73
2023-11-26T00:15:13.526Z,3.13
2023-11-26T00:15:46.079Z,3.17
2023-11-26T00:16:18.746Z,3.00
2023-11-26T00:16:51.389Z,3.20
2023-11-26T00:17:24.253Z,3.23
2023-11-26T00:17:57.504Z,3.00
2023-11-26T00:18:30.143Z,3.30
2023-11-26T00:19:02.646Z,3.10
2023-11-26T00:19:35.689Z,3.13
2023-11-26T00:20:09.110Z,2.87
2023-11-26T00:20:41.757Z,3.07
2023-11-26T00:21:14.264Z,3.20
2023-11-26T00:21:46.821Z,3.40
2023-11-26T00:22:19.366Z,2.80
2023-11-26T00:22:52.171Z,3.13
2023-11-26T00:23:24.815Z,3.07
2023-11-26T00:23:57.424Z,2.83
2023-11-26T00:24:29.976Z,3.13
2023-11-26T00:25:02.523Z,2.73
2023-11-26T00:25:35.150Z,3.20
2023-11-26T00:26:08.313Z,3.43
2023-11-26T00:26:40.881Z,2.83
2023-11-26T00:27:13.445Z,3.17
2023-11-26T00:27:46.150Z,2.93
2023-11-26T00:28:19.105Z,2.93
2023-11-26T00:28:51.661Z,3.13
2023-11-26T00:29:24.300Z,3.27
2023-11-26T00:29:56.916Z,3.37
2023-11-26T00:30:30.549Z,3.33
2023-11-26T00:31:03.088Z,3.13
2023-11-26T00:31:35.582Z,3.40
2023-11-26T00:32:09.028Z,3.40
2023-11-26T00:32:41.584Z,3.47
2023-11-26T00:33:14.103Z,3.57
2023-11-26T00:33:49.610Z,3.20
2023-11-26T00:34:22.781Z,3.37
2023-11-26T00:34:55.711Z,3.47
2023-11-26T00:35:28.275Z,3.23
2023-11-26T00:36:00.806Z,3.43
2023-11-26T00:36:33.358Z,3.50
2023-11-26T00:37:05.916Z,3.00
2023-11-26T00:37:38.478Z,3.27
2023-11-26T00:38:11.081Z,3.27
2023-11-26T00:38:44.849Z,3.20
2023-11-26T00:39:17.628Z,3.27
2023-11-26T00:39:50.157Z,3.73
2023-11-26T00:40:25.892Z,4.40
2023-11-26T00:40:58.688Z,3.57
2023-11-26T00:41:31.262Z,3.17
2023-11-26T00:42:03.817Z,3.00
2023-11-26T00:42:36.364Z,2.97
2023-11-26T00:43:08.910Z,2.73
2023-11-26T00:43:41.983Z,2.73
2023-11-26T00:44:14.582Z,2.73
2023-11-26T00:44:47.178Z,2.80
2023-11-26T00:45:19.772Z,3.07
2023-11-26T00:45:52.301Z,3.53
2023-11-26T00:46:24.867Z,3.63
2023-11-26T00:46:57.516Z,3.20
2023-11-26T00:47:30.256Z,3.10
2023-11-26T00:48:03.166Z,2.90
2023-11-26T00:48:35.755Z,2.83
2023-11-26T00:49:08.327Z,2.87
2023-11-26T00:49:40.844Z,2.87
2023-11-26T00:50:15.514Z,3.47
2023-11-26T00:50:48.140Z,3.53
2023-11-26T00:51:21.976Z,3.33
2023-11-26T00:51:54.536Z,3.27
2023-11-26T00:52:27.076Z,3.33
2023-11-26T00:52:59.653Z,4.07
2023-11-26T00:53:35.725Z,3.17
2023-11-26T00:54:09.609Z,3.07
2023-11-26T00:54:42.394Z,3.50
2023-11-26T00:55:14.984Z,3.70
2023-11-26T00:55:47.570Z,3.83
2023-11-26T00:56:21.574Z,3.30
2023-11-26T00:56:54.170Z,3.40
2023-11-26T00:57:27.426Z,3.33
2023-11-26T00:57:59.962Z,2.83
2023-11-26T00:58:32.499Z,3.50
2023-11-26T00:59:05.049Z,3.33
2023-11-26T00:59:37.580Z,3.50
2023-11-26T01:00:13.743Z,3.73
2023-11-26T01:00:46.441Z,3.57
2023-11-26T01:01:19.092Z,3.30
2023-11-26T01:01:51.954Z,3.53
2023-11-26T01:02:25.734Z,3.40
2023-11-26T01:02:58.475Z,3.27
2023-11-26T01:03:31.154Z,3.20
2023-11-26T01:04:04.468Z,3.00
2023-11-26T01:04:37.698Z,3.07
2023-11-26T01:05:10.304Z,3.03
2023-11-26T01:05:42.905Z,3.30
2023-11-26T01:06:15.403Z,2.77
2023-11-26T01:06:47.905Z,2.93
2023-11-26T01:07:20.447Z,3.33
2023-11-26T01:07:53.505Z,3.13
2023-11-26T01:08:26.109Z,2.93
2023-11-26T01:08:59.689Z,2.97
2023-11-26T01:09:32.260Z,3.07
2023-11-26T01:10:05.162Z,3.27
2023-11-26T01:10:37.694Z,3.23
2023-11-26T01:11:13.844Z,2.73
2023-11-26T01:11:46.443Z,2.43
2023-11-26T01:12:18.999Z,2.93
2023-11-26T01:12:51.501Z,4.30
2023-11-26T01:13:24.008Z,3.23
2023-11-26T01:13:56.531Z,3.33
2023-11-26T01:14:29.167Z,3.60
2023-11-26T01:15:02.342Z,3.33
2023-11-26T01:15:35.084Z,2.87
2023-11-26T01:16:08.802Z,3.17
2023-11-26T01:16:41.327Z,3.50
2023-11-26T01:17:13.961Z,3.27
2023-11-26T01:17:47.312Z,2.53
2023-11-26T01:18:19.980Z,2.43
2023-11-26T01:18:52.542Z,2.93
2023-11-26T01:19:25.113Z,3.30
2023-11-26T01:19:57.818Z,2.90
2023-11-26T01:20:30.544Z,2.73
2023-11-26T01:21:03.743Z,2.73
2023-11-26T01:21:36.272Z,3.13
2023-11-26T01:22:08.816Z,2.70
2023-11-26T01:22:41.575Z,2.60
2023-11-26T01:23:14.207Z,3.83
2023-11-26T01:23:46.985Z,3.33
2023-11-26T01:24:19.500Z,2.80
2023-11-26T01:24:53.295Z,3.43
2023-11-26T01:25:25.825Z,2.63
2023-11-26T01:25:58.373Z,2.80
2023-11-26T01:26:30.908Z,3.33
2023-11-26T01:27:05.446Z,2.80
2023-11-26T01:27:37.986Z,2.93
2023-11-26T01:28:10.540Z,3.50
2023-11-26T01:28:43.219Z,3.30
2023-11-26T01:29:15.770Z,2.63
2023-11-26T01:29:48.745Z,2.73
2023-11-26T01:30:22.338Z,3.17
2023-11-26T01:30:54.873Z,3.10
2023-11-26T01:31:27.381Z,3.43
2023-11-26T01:31:59.914Z,2.93
2023-11-26T01:32:34.122Z,3.30
2023-11-26T01:33:07.645Z,3.17
2023-11-26T01:33:40.735Z,3.23
2023-11-26T01:34:13.289Z,2.83
2023-11-26T01:34:45.798Z,2.80
2023-11-26T01:35:18.366Z,3.47
2023-11-26T01:35:50.937Z,3.10
2023-11-26T01:36:23.456Z,2.90
2023-11-26T01:36:55.969Z,3.10
2023-11-26T01:37:28.488Z,3.03
2023-11-26T01:38:01.301Z,2.87
2023-11-26T01:38:34.021Z,3.03
2023-11-26T01:39:07.558Z,2.87
2023-11-26T01:39:40.884Z,2.73
2023-11-26T01:40:13.478Z,3.10
2023-11-26T01:40:46.046Z,2.87
2023-11-26T01:41:18.609Z,3.20
2023-11-26T01:41:51.176Z,3.43
2023-11-26T01:42:23.712Z,2.80
2023-11-26T01:42:56.549Z,2.87
2023-11-26T01:43:29.074Z,3.37
2023-11-26T01:44:01.705Z,2.93
2023-11-26T01:44:34.406Z,3.23
2023-11-26T01:45:08.649Z,3.67
2023-11-26T01:45:41.188Z,3.17
2023-11-26T01:46:14.780Z,3.67
2023-11-26T01:46:47.430Z,3.20
2023-11-26T01:47:20.550Z,3.27
2023-11-26T01:47:53.651Z,3.13
2023-11-26T01:48:26.230Z,2.80
2023-11-26T01:48:59.888Z,3.37
2023-11-26T01:49:36.438Z,3.27
2023-11-26T01:50:10.560Z,3.60
2023-11-26T01:50:44.337Z,3.17
2023-11-26T01:51:19.402Z,3.20
2023-11-26T01:51:51.911Z,3.13
2023-11-26T01:52:24.395Z,3.70
2023-11-26T01:52:57.343Z,3.83
2023-11-26T01:53:31.422Z,3.30
2023-11-26T01:54:05.177Z,3.33
2023-11-26T01:54:41.674Z,3.57
2023-11-26T01:55:14.199Z,3.40
2023-11-26T01:55:46.681Z,3.20
2023-11-26T01:56:20.424Z,3.80
2023-11-26T01:56:55.007Z,3.40
2023-11-26T01:57:27.963Z,3.20
2023-11-26T01:58:00.545Z,4.00
2023-11-26T01:58:33.142Z,3.47
2023-11-26T01:59:05.911Z,3.27
2023-11-26T01:59:39.966Z,3.43
2023-11-26T02:00:17.055Z,3.33
2023-11-26T02:00:52.019Z,2.90
2023-11-26T02:01:25.029Z,3.27
2023-11-26T02:01:58.038Z,3.00
2023-11-26T02:02:30.701Z,3.20
2023-11-26T02:03:06.148Z,2.97
2023-11-26T02:03:38.917Z,3.37
2023-11-26T02:04:11.477Z,3.30
2023-11-26T02:04:44.774Z,3.50
2023-11-26T02:05:18.558Z,3.10
2023-11-26T02:05:51.239Z,3.10
2023-11-26T02:06:24.343Z,3.37
2023-11-26T02:06:57.773Z,3.43
2023-11-26T02:07:30.288Z,3.60
2023-11-26T02:08:02.883Z,3.50
2023-11-26T02:08:35.460Z,3.10
2023-11-26T02:09:09.796Z,3.27
2023-11-26T02:09:42.391Z,3.43
2023-11-26T02:10:15.267Z,3.07
2023-11-26T02:10:47.910Z,3.90
2023-11-26T02:11:20.705Z,3.23
2023-11-26T02:11:53.294Z,3.40
2023-11-26T02:12:25.799Z,3.33
2023-11-26T02:13:08.384Z,3.30
2023-11-26T02:13:50.818Z,2.90
2023-11-26T02:14:24.512Z,3.00
2023-11-26T02:14:57.169Z,3.03
2023-11-26T02:15:30.310Z,3.77
2023-11-26T02:16:02.813Z,3.07
2023-11-26T02:16:35.336Z,2.77
2023-11-26T02:17:07.957Z,3.33
2023-11-26T02:17:40.639Z,3.40
2023-11-26T02:18:13.267Z,3.60
2023-11-26T02:18:45.812Z,3.83
2023-11-26T02:19:33.966Z,3.70
2023-11-26T02:20:14.210Z,3.93
2023-11-26T02:20:47.372Z,3.53
2023-11-26T02:21:19.865Z,3.80
2023-11-26T02:21:53.789Z,4.33
2023-11-26T02:22:26.312Z,3.73
2023-11-26T02:22:58.993Z,3.50
2023-11-26T02:23:33.926Z,3.47
2023-11-26T02:24:07.600Z,2.97
2023-11-26T02:24:45.076Z,3.37
2023-11-26T02:25:17.682Z,3.27
2023-11-26T02:25:50.278Z,3.23
2023-11-26T02:26:22.847Z,3.27
2023-11-26T02:26:55.683Z,2.73
2023-11-26T02:27:28.192Z,3.13
2023-11-26T02:28:01.095Z,3.27
2023-11-26T02:28:33.882Z,2.93
2023-11-26T02:29:09.471Z,3.13
2023-11-26T02:29:42.464Z,3.77
2023-11-26T02:30:15.028Z,3.43
2023-11-26T02:30:47.567Z,3.30
2023-11-26T02:31:20.069Z,3.63
2023-11-26T02:31:52.651Z,3.23
2023-11-26T02:32:25.227Z,3.30
2023-11-26T02:32:57.810Z,3.07
2023-11-26T02:33:53.432Z,3.90
2023-11-26T02:34:23.405Z,3.83
2023-11-26T02:34:55.956Z,3.67
2023-11-26T02:35:28.701Z,3.50
2023-11-26T02:36:01.307Z,4.13
2023-11-26T02:36:33.884Z,3.93
2023-11-26T02:37:06.442Z,3.53
2023-11-26T02:37:38.975Z,3.27
2023-11-26T02:38:11.519Z,3.20
2023-11-26T02:38:44.019Z,2.93
2023-11-26T02:39:16.530Z,3.73
2023-11-26T02:39:49.425Z,3.60
2023-11-26T02:40:23.242Z,4.03
2023-11-26T02:40:55.844Z,4.13
2023-11-26T02:41:28.393Z,3.70
2023-11-26T02:42:00.966Z,3.20
2023-11-26T02:42:33.879Z,2.97
2023-11-26T02:43:06.908Z,3.60
2023-11-26T02:43:40.799Z,3.57
2023-11-26T02:44:13.396Z,3.03
2023-11-26T02:44:45.927Z,2.90
2023-11-26T02:45:18.442Z,3.13
2023-11-26T02:45:58.179Z,3.70
2023-11-26T02:46:30.751Z,3.03
2023-11-26T02:47:04.829Z,3.07
2023-11-26T02:47:38.140Z,3.07
2023-11-26T02:48:10.980Z,3.60
2023-11-26T02:48:43.506Z,3.23
2023-11-26T02:49:16.062Z,3.23
2023-11-26T02:49:48.714Z,2.87
2023-11-26T02:50:21.343Z,3.37
2023-11-26T02:50:53.931Z,3.90
2023-11-26T02:51:26.529Z,3.93
2023-11-26T02:51:59.028Z,4.40
2023-11-26T02:52:31.895Z,3.83
2023-11-26T02:53:04.653Z,4.40
2023-11-26T02:53:37.231Z,4.40
2023-11-26T02:54:10.311Z,4.43
2023-11-26T02:54:42.847Z,4.87
2023-11-26T02:55:15.363Z,5.27
2023-11-26T02:55:48.205Z,5.60
2023-11-26T02:56:20.788Z,5.40
2023-11-26T02:56:53.409Z,5.77
2023-11-26T02:57:25.930Z,5.87
2023-11-26T02:57:58.496Z,5.87
2023-11-26T02:58:31.043Z,5.30
2023-11-26T02:59:03.825Z,4.87
2023-11-26T02:59:36.853Z,4.83
2023-11-26T03:00:17.173Z,4.87
2023-11-26T03:00:50.367Z,3.93
2023-11-26T03:01:29.599Z,4.07
2023-11-26T03:02:02.301Z,3.47
2023-11-26T03:02:36.165Z,3.90
2023-11-26T03:03:08.850Z,3.73
2023-11-26T03:03:41.493Z,4.23
2023-11-26T03:04:19.054Z,4.47
2023-11-26T03:04:54.006Z,3.97
2023-11-26T03:05:26.625Z,3.63
2023-11-26T03:05:59.624Z,3.27
2023-11-26T03:06:32.757Z,3.27
2023-11-26T03:07:05.562Z,3.73
2023-11-26T03:07:38.107Z,3.13
2023-11-26T03:08:22.292Z,3.13
2023-11-26T03:09:02.032Z,3.50
2023-11-26T03:09:34.785Z,3.53
2023-11-26T03:10:26.626Z,3.13
2023-11-26T03:11:17.936Z,3.47
2023-11-26T03:12:08.882Z,3.37
2023-11-26T03:12:59.708Z,3.60
2023-11-26T03:13:32.206Z,3.93
2023-11-26T03:14:04.753Z,3.87
2023-11-26T03:14:37.290Z,3.73
2023-11-26T03:15:10.244Z,3.40
2023-11-26T03:15:43.458Z,3.70
2023-11-26T03:16:16.484Z,3.83
2023-11-26T03:16:50.290Z,3.83
2023-11-26T03:17:24.153Z,3.50
2023-11-26T03:17:57.680Z,3.80
2023-11-26T03:18:30.346Z,3.63
2023-11-26T03:19:02.957Z,3.60
2023-11-26T03:19:35.539Z,3.77
2023-11-26T03:20:12.318Z,3.53
2023-11-26T03:20:46.876Z,3.50
2023-11-26T03:21:20.122Z,3.63
2023-11-26T03:21:55.001Z,3.17
2023-11-26T03:22:27.679Z,3.17
2023-11-26T03:23:00.354Z,3.47
2023-11-26T03:23:34.188Z,3.07
2023-11-26T03:24:07.062Z,3.40
2023-11-26T03:24:39.624Z,3.30
2023-11-26T03:25:12.186Z,3.60
2023-11-26T03:25:44.690Z,4.20
2023-11-26T03:26:17.397Z,3.67
2023-11-26T03:26:49.934Z,3.30
2023-11-26T03:27:22.447Z,3.47
2023-11-26T03:27:55.708Z,2.90
2023-11-26T03:28:28.378Z,3.57
2023-11-26T03:29:01.030Z,3.43
2023-11-26T03:29:33.682Z,3.47
2023-11-26T03:30:09.155Z,3.40
2023-11-26T03:30:41.656Z,3.43
2023-11-26T03:31:14.211Z,3.27
2023-11-26T03:31:48.606Z,3.77
2023-11-26T03:32:21.223Z,3.43
2023-11-26T03:32:58.910Z,3.23
2023-11-26T03:33:31.585Z,3.27
2023-11-26T03:34:09.780Z,3.37
2023-11-26T03:34:42.413Z,3.03
2023-11-26T03:35:15.049Z,2.90
2023-11-26T03:35:47.597Z,3.20
2023-11-26T03:36:20.100Z,3.57
2023-11-26T03:36:52.598Z,2.87
2023-11-26T03:37:25.161Z,3.47
2023-11-26T03:37:58.263Z,3.63
2023-11-26T03:38:31.918Z,3.43
2023-11-26T03:39:05.126Z,4.40
2023-11-26T03:39:41.874Z,4.87
2023-11-26T03:40:14.485Z,6.47
2023-11-26T03:40:47.108Z,5.77
2023-11-26T03:41:20.057Z,6.13
2023-11-26T03:41:52.730Z,5.30
2023-11-26T03:42:29.170Z,5.70
2023-11-26T03:43:02.280Z,6.17
2023-11-26T03:43:34.866Z,5.23
2023-11-26T03:44:07.441Z,4.43
2023-11-26T03:44:39.975Z,5.20
2023-11-26T03:45:12.897Z,6.03
2023-11-26T03:45:45.484Z,6.03
2023-11-26T03:46:18.446Z,5.43
2023-11-26T03:46:51.053Z,5.03
2023-11-26T03:47:24.801Z,6.40
2023-11-26T03:47:57.582Z,7.03
2023-11-26T03:48:30.145Z,7.27
2023-11-26T03:49:02.892Z,7.43
2023-11-26T03:49:35.869Z,6.70
2023-11-26T03:50:14.528Z,6.53
2023-11-26T03:50:47.241Z,4.57
2023-11-26T03:51:22.181Z,5.03
2023-11-26T03:51:54.760Z,4.60
2023-11-26T03:52:27.277Z,4.97
2023-11-26T03:52:59.866Z,4.30
2023-11-26T03:53:32.419Z,4.37
2023-11-26T03:54:05.048Z,4.83
2023-11-26T03:54:37.603Z,3.87
2023-11-26T03:55:10.522Z,4.30
2023-11-26T03:55:43.235Z,5.07
2023-11-26T03:56:16.249Z,4.80
2023-11-26T03:56:49.007Z,3.83
2023-11-26T03:57:21.727Z,4.50
2023-11-26T03:57:54.347Z,3.87
2023-11-26T03:58:26.884Z,3.60
2023-11-26T03:58:59.437Z,3.67
2023-11-26T03:59:32.061Z,4.40
2023-11-26T04:00:09.794Z,5.17
2023-11-26T04:00:42.541Z,4.50
2023-11-26T04:01:15.075Z,4.33
2023-11-26T04:01:47.774Z,4.13
2023-11-26T04:02:20.564Z,4.53
2023-11-26T04:02:53.420Z,4.13
2023-11-26T04:03:26.306Z,4.63
2023-11-26T04:04:00.056Z,3.90
2023-11-26T04:04:32.670Z,4.10
2023-11-26T04:05:05.799Z,4.30
2023-11-26T04:05:38.389Z,4.20
2023-11-26T04:06:11.141Z,3.90
2023-11-26T04:06:43.662Z,4.10
2023-11-26T04:07:16.172Z,3.77
2023-11-26T04:07:48.857Z,3.90
2023-11-26T04:08:21.469Z,4.20
2023-11-26T04:08:55.245Z,3.63
2023-11-26T04:09:28.026Z,3.77
2023-11-26T04:10:00.848Z,3.47
2023-11-26T04:10:40.654Z,3.53
2023-11-26T04:11:14.977Z,3.67
2023-11-26T04:11:47.600Z,4.43
2023-11-26T04:12:20.154Z,4.07
2023-11-26T04:12:52.719Z,4.17
2023-11-26T04:13:28.551Z,4.00
2023-11-26T04:14:01.127Z,4.60
2023-11-26T04:14:33.731Z,4.20
2023-11-26T04:15:08.107Z,4.17
2023-11-26T04:15:45.506Z,4.70
2023-11-26T04:16:20.130Z,4.07
2023-11-26T04:16:52.831Z,3.77
2023-11-26T04:17:26.758Z,4.17
2023-11-26T04:17:59.439Z,4.17
2023-11-26T04:18:31.979Z,4.37
2023-11-26T04:19:04.609Z,4.20
2023-11-26T04:19:37.144Z,3.60
2023-11-26T04:20:10.129Z,3.63
2023-11-26T04:20:42.750Z,3.43
2023-11-26T04:21:15.275Z,4.00
2023-11-26T04:21:48.118Z,3.50
2023-11-26T04:22:21.842Z,3.83
2023-11-26T04:22:54.405Z,4.00
2023-11-26T04:23:26.974Z,3.50
2023-11-26T04:23:59.560Z,3.60
2023-11-26T04:24:32.147Z,3.93
2023-11-26T04:25:06.683Z,3.77
2023-11-26T04:25:39.618Z,3.77
2023-11-26T04:26:12.186Z,3.97
2023-11-26T04:26:46.602Z,3.73
2023-11-26T04:27:22.461Z,3.83
2023-11-26T04:27:55.315Z,3.67
2023-11-26T04:28:27.820Z,4.00
2023-11-26T04:29:00.364Z,4.13
2023-11-26T04:29:32.958Z,3.60
2023-11-26T04:30:05.934Z,4.13
2023-11-26T04:30:38.558Z,3.57
2023-11-26T04:31:11.177Z,4.50
2023-11-26T04:31:46.266Z,4.47
2023-11-26T04:32:18.860Z,3.97
2023-11-26T04:32:51.484Z,4.83
2023-11-26T04:33:25.040Z,5.17
2023-11-26T04:33:57.552Z,5.03
2023-11-26T04:34:30.383Z,4.87
2023-11-26T04:35:02.976Z,4.63
2023-11-26T04:35:35.626Z,5.17
2023-11-26T04:36:08.385Z,5.33
2023-11-26T04:36:40.941Z,5.40
2023-11-26T04:37:13.454Z,5.20
2023-11-26T04:37:46.021Z,5.10
2023-11-26T04:38:18.616Z,4.30
2023-11-26T04:38:51.249Z,4.87
2023-11-26T04:39:24.152Z,5.33
2023-11-26T04:39:56.659Z,5.03
2023-11-26T04:40:29.226Z,5.13
2023-11-26T04:41:01.787Z,5.37
2023-11-26T04:41:34.315Z,4.73
2023-11-26T04:42:06.926Z,5.03
2023-11-26T04:42:39.493Z,5.83
2023-11-26T04:43:12.261Z,5.77
2023-11-26T04:43:44.793Z,4.97
2023-11-26T04:44:18.019Z,4.97
2023-11-26T04:44:50.616Z,5.93
2023-11-26T04:45:23.525Z,4.77
2023-11-26T04:45:56.254Z,4.50
2023-11-26T04:46:28.879Z,4.87
2023-11-26T04:47:01.503Z,5.13
2023-11-26T04:47:36.780Z,5.13
2023-11-26T04:48:10.018Z,5.03
2023-11-26T04:48:43.532Z,4.80
2023-11-26T04:49:17.071Z,5.20
2023-11-26T04:49:49.630Z,5.07
2023-11-26T04:50:22.186Z,5.57
2023-11-26T04:50:54.718Z,5.07
2023-11-26T04:51:28.499Z,5.50
2023-11-26T04:52:01.098Z,5.03
2023-11-26T04:52:33.913Z,5.33
2023-11-26T04:53:06.475Z,4.83
2023-11-26T04:53:40.510Z,4.97
2023-11-26T04:54:13.513Z,5.77
2023-11-26T04:54:46.081Z,5.93
2023-11-26T04:55:20.808Z,6.20
2023-11-26T04:55:54.372Z,5.80
2023-11-26T04:56:26.991Z,5.63
2023-11-26T04:56:59.551Z,5.10
2023-11-26T04:57:32.128Z,4.97
2023-11-26T04:58:04.653Z,4.87
2023-11-26T04:58:38.174Z,4.83
2023-11-26T04:59:10.709Z,4.67
2023-11-26T04:59:43.320Z,5.53
2023-11-26T05:00:18.809Z,5.03
2023-11-26T05:00:52.537Z,4.37
2023-11-26T05:01:25.745Z,4.53
2023-11-26T05:01:58.429Z,4.67
2023-11-26T05:02:33.918Z,4.47
2023-11-26T05:03:07.319Z,4.63
2023-11-26T05:03:41.091Z,4.87
2023-11-26T05:04:14.872Z,4.57
2023-11-26T05:04:49.303Z,4.40
2023-11-26T05:05:22.812Z,4.43
2023-11-26T05:05:56.186Z,4.47
2023-11-26T05:06:28.722Z,4.37
2023-11-26T05:07:01.216Z,4.40
2023-11-26T05:07:33.756Z,3.67
2023-11-26T05:08:06.678Z,3.87
2023-11-26T05:08:39.802Z,4.57
2023-11-26T05:09:13.467Z,4.13
2023-11-26T05:09:46.004Z,4.40
2023-11-26T05:10:18.544Z,4.17
2023-11-26T05:10:51.911Z,4.93
2023-11-26T05:11:24.505Z,3.90
2023-11-26T05:11:57.041Z,4.03
2023-11-26T05:12:29.589Z,3.97
2023-11-26T05:13:02.101Z,3.93
2023-11-26T05:13:34.644Z,3.73
2023-11-26T05:14:07.253Z,4.37
2023-11-26T05:14:39.906Z,4.20
2023-11-26T05:15:12.447Z,4.43
2023-11-26T05:15:45.023Z,4.40
2023-11-26T05:16:17.968Z,4.80
2023-11-26T05:16:50.772Z,4.50
2023-11-26T05:17:23.352Z,4.53
2023-11-26T05:17:56.422Z,4.63
2023-11-26T05:18:29.026Z,5.10
2023-11-26T05:19:01.558Z,5.27
2023-11-26T05:19:34.108Z,4.80
2023-11-26T05:20:14.149Z,4.43
2023-11-26T05:20:46.847Z,4.87
2023-11-26T05:21:19.417Z,4.97
2023-11-26T05:21:52.064Z,5.10
2023-11-26T05:22:24.632Z,4.77
2023-11-26T05:22:58.153Z,4.10
2023-11-26T05:23:31.507Z,4.70
2023-11-26T05:24:05.691Z,4.60
2023-11-26T05:24:39.096Z,4.93
2023-11-26T05:25:11.651Z,4.60
2023-11-26T05:25:44.170Z,4.30
2023-11-26T05:26:16.820Z,4.43
2023-11-26T05:26:49.405Z,5.43
2023-11-26T05:27:23.088Z,5.07
2023-11-26T05:27:55.657Z,5.00
2023-11-26T05:28:28.178Z,5.07
2023-11-26T05:29:00.897Z,4.53
2023-11-26T05:29:33.486Z,4.83
2023-11-26T05:30:08.044Z,4.47
2023-11-26T05:30:40.693Z,4.40
2023-11-26T05:31:13.443Z,4.30
2023-11-26T05:31:46.232Z,4.33
2023-11-26T05:32:18.794Z,4.73
2023-11-26T05:32:51.374Z,4.93
2023-11-26T05:33:23.980Z,4.80
2023-11-26T05:33:56.494Z,4.83
2023-11-26T05:34:29.043Z,5.30
2023-11-26T05:35:13.565Z,5.27
2023-11-26T05:35:46.288Z,4.77
2023-11-26T05:36:19.713Z,4.50
2023-11-26T05:36:52.399Z,4.57
2023-11-26T05:37:25.046Z,5.03
2023-11-26T05:37:57.636Z,4.97
2023-11-26T05:38:30.299Z,5.33
2023-11-26T05:39:02.847Z,4.93
2023-11-26T05:39:35.890Z,5.30
2023-11-26T05:40:10.873Z,5.03
2023-11-26T05:40:43.413Z,4.90
2023-11-26T05:41:16.185Z,4.70
2023-11-26T05:41:48.846Z,4.83
2023-11-26T05:42:21.395Z,4.60
2023-11-26T05:42:53.937Z,4.90
2023-11-26T05:43:27.304Z,5.73
2023-11-26T05:44:00.023Z,5.23
2023-11-26T05:44:32.617Z,4.37
2023-11-26T05:45:06.162Z,4.43
2023-11-26T05:45:38.707Z,5.43
2023-11-26T05:46:11.265Z,4.70
2023-11-26T05:46:44.574Z,4.83
2023-11-26T05:47:17.302Z,5.43
2023-11-26T05:47:50.113Z,5.23
2023-11-26T05:48:22.825Z,5.07
2023-11-26T05:48:55.559Z,4.70
2023-11-26T05:49:28.129Z,4.87
2023-11-26T05:50:01.263Z,5.27
2023-11-26T05:50:33.881Z,5.30
2023-11-26T05:51:06.807Z,5.13
2023-11-26T05:51:39.388Z,4.63
2023-11-26T05:52:11.913Z,5.13
2023-11-26T05:52:44.472Z,5.37
2023-11-26T05:53:16.984Z,4.50
2023-11-26T05:53:49.589Z,4.43
2023-11-26T05:54:22.242Z,4.80
2023-11-26T05:54:54.800Z,4.70
2023-11-26T05:55:27.308Z,4.43
2023-11-26T05:56:00.326Z,4.50
2023-11-26T05:56:32.858Z,5.13
2023-11-26T05:57:05.961Z,4.73
2023-11-26T05:57:38.580Z,4.90
2023-11-26T05:58:11.197Z,4.73
2023-11-26T05:58:43.746Z,5.60
2023-11-26T05:59:16.310Z,5.13
2023-11-26T05:59:49.148Z,5.07
2023-11-26T06:00:21.891Z,4.93
2023-11-26T06:00:55.143Z,4.90
2023-11-26T06:01:27.971Z,5.33
2023-11-26T06:02:00.981Z,5.40
2023-11-26T06:02:34.279Z,4.80
2023-11-26T06:03:06.931Z,4.83
2023-11-26T06:03:39.645Z,4.90
2023-11-26T06:04:12.604Z,4.73
2023-11-26T06:04:45.117Z,4.57
2023-11-26T06:05:18.153Z,4.90
2023-11-26T06:05:50.692Z,5.17
2023-11-26T06:06:24.069Z,5.10
2023-11-26T06:06:56.717Z,4.90
2023-11-26T06:07:29.304Z,4.63
2023-11-26T06:08:03.665Z,4.50
2023-11-26T06:08:36.344Z,4.53
2023-11-26T06:09:08.914Z,4.47
2023-11-26T06:09:42.184Z,4.43
2023-11-26T06:10:14.727Z,4.63
2023-11-26T06:10:47.950Z,3.93
2023-11-26T06:11:20.503Z,3.87
2023-11-26T06:11:53.011Z,4.10
2023-11-26T06:12:25.608Z,3.90
2023-11-26T06:12:58.404Z,3.77
2023-11-26T06:13:30.967Z,3.93
2023-11-26T06:14:03.647Z,3.73
2023-11-26T06:14:36.701Z,4.73
2023-11-26T06:15:09.864Z,4.50
2023-11-26T06:15:42.488Z,4.73
2023-11-26T06:16:15.137Z,4.73
2023-11-26T06:16:47.725Z,4.43
2023-11-26T06:17:20.260Z,4.47
2023-11-26T06:17:52.903Z,4.77
2023-11-26T06:18:25.496Z,4.87
2023-11-26T06:18:58.034Z,4.83
2023-11-26T06:19:30.551Z,4.83
2023-11-26T06:20:03.909Z,4.33
2023-11-26T06:20:36.448Z,4.40
2023-11-26T06:21:09.074Z,4.40
2023-11-26T06:21:41.746Z,5.03
2023-11-26T06:22:14.389Z,3.83
2023-11-26T06:22:46.920Z,4.30
2023-11-26T06:23:19.424Z,4.40
2023-11-26T06:23:54.608Z,4.93
2023-11-26T06:24:28.521Z,5.00
2023-11-26T06:25:01.049Z,4.50
2023-11-26T06:25:33.566Z,4.63
2023-11-26T06:26:06.131Z,4.20
2023-11-26T06:26:39.453Z,4.63
2023-11-26T06:27:12.035Z,3.73
2023-11-26T06:27:44.636Z,3.63
2023-11-26T06:28:18.456Z,3.93
2023-11-26T06:28:51.021Z,4.30
2023-11-26T06:29:23.608Z,4.63
2023-11-26T06:29:56.143Z,4.43
2023-11-26T06:30:28.934Z,4.87
2023-11-26T06:31:01.560Z,4.33
2023-11-26T06:31:34.208Z,4.37
2023-11-26T06:32:07.075Z,3.97
2023-11-26T06:32:39.637Z,4.20
2023-11-26T06:33:12.177Z,4.23
2023-11-26T06:33:44.778Z,3.90
2023-11-26T06:34:19.558Z,3.37
2023-11-26T06:34:52.098Z,2.93
2023-11-26T06:35:24.599Z,3.53
2023-11-26T06:35:57.102Z,4.33
2023-11-26T06:36:29.941Z,3.97
2023-11-26T06:37:02.789Z,4.03
2023-11-26T06:37:35.573Z,3.60
2023-11-26T06:38:08.158Z,3.60
2023-11-26T06:38:40.677Z,4.23
2023-11-26T06:39:16.089Z,3.97
2023-11-26T06:39:50.367Z,4.00
2023-11-26T06:40:23.060Z,4.37
2023-11-26T06:40:55.553Z,4.13
2023-11-26T06:41:35.516Z,4.10
2023-11-26T06:42:08.048Z,3.97
2023-11-26T06:42:42.688Z,3.73
2023-11-26T06:43:15.359Z,3.67
2023-11-26T06:43:47.894Z,3.53
2023-11-26T06:44:21.876Z,4.00
2023-11-26T06:44:54.489Z,3.63
2023-11-26T06:45:27.342Z,3.93
2023-11-26T06:46:00.117Z,3.43
2023-11-26T06:46:32.664Z,3.17
2023-11-26T06:47:05.357Z,3.40
2023-11-26T06:47:38.292Z,3.73
2023-11-26T06:48:11.393Z,3.87
2023-11-26T06:48:45.072Z,3.37
2023-11-26T06:49:17.600Z,3.83
2023-11-26T06:49:50.114Z,3.57
2023-11-26T06:50:23.260Z,2.90
2023-11-26T06:50:55.809Z,4.20
2023-11-26T06:51:28.349Z,3.83
2023-11-26T06:52:00.897Z,3.57
2023-11-26T06:52:35.097Z,3.60
2023-11-26T06:53:08.318Z,3.97
2023-11-26T06:53:40.938Z,3.87
2023-11-26T06:54:13.482Z,4.10
2023-11-26T06:54:45.990Z,3.57
2023-11-26T06:55:18.487Z,3.53
2023-11-26T06:55:51.237Z,3.90
2023-11-26T06:56:23.777Z,4.33
2023-11-26T06:56:56.278Z,3.80
2023-11-26T06:57:28.828Z,3.87
2023-11-26T06:58:01.354Z,3.77
2023-11-26T06:58:45.095Z,3.67
2023-11-26T06:59:17.639Z,4.00
2023-11-26T06:59:50.212Z,3.67
2023-11-26T07:00:22.731Z,3.80
2023-11-26T07:00:55.295Z,4.10
2023-11-26T07:01:27.980Z,3.90
2023-11-26T07:02:00.522Z,4.03
2023-11-26T07:02:33.076Z,4.73
2023-11-26T07:03:05.611Z,3.87
2023-11-26T07:03:39.474Z,3.53
2023-11-26T07:04:12.235Z,4.00
2023-11-26T07:04:45.577Z,4.80
2023-11-26T07:05:18.326Z,4.27
2023-11-26T07:05:50.910Z,4.27
2023-11-26T07:06:23.473Z,4.00
2023-11-26T07:06:56.110Z,3.97
2023-11-26T07:07:28.617Z,4.33
2023-11-26T07:08:01.428Z,4.27
2023-11-26T07:08:34.744Z,3.67
2023-11-26T07:09:10.232Z,4.13
2023-11-26T07:09:42.819Z,4.70
2023-11-26T07:10:15.486Z,4.83
2023-11-26T07:10:48.025Z,4.37
2023-11-26T07:11:25.487Z,4.03
2023-11-26T07:11:58.612Z,4.37
2023-11-26T07:12:31.277Z,4.23
2023-11-26T07:13:06.613Z,4.37
2023-11-26T07:13:40.617Z,3.93
2023-11-26T07:14:14.580Z,4.17
2023-11-26T07:14:47.164Z,4.50
2023-11-26T07:15:19.744Z,4.37
2023-11-26T07:15:53.177Z,3.87
2023-11-26T07:16:25.721Z,3.93
2023-11-26T07:16:58.271Z,4.07
2023-11-26T07:17:31.163Z,4.67
2023-11-26T07:18:04.584Z,4.00
2023-11-26T07:18:37.181Z,4.30
2023-11-26T07:19:10.294Z,4.00
2023-11-26T07:19:43.522Z,4.17
2023-11-26T07:20:18.506Z,3.60
2023-11-26T07:20:51.244Z,4.37
2023-11-26T07:21:23.799Z,4.50
2023-11-26T07:21:56.788Z,4.33
2023-11-26T07:22:29.333Z,3.97
2023-11-26T07:23:01.915Z,3.73